METAR Formatted Surface Weather Observation
Issued by NWS Nashville, TN

Home | Current Version | Previous Version | Text Only | Print | Product List | Glossary On
Versions: 1 2
680
SAUS44 KOHX 101802 AAA
MTRBNA

METAR KBNA 101753Z 28010KT 10SM SCT037 BKN200 M03/M12 A3021 RMK AO2
     SLP235 60000 T10331122 11033 21072 50003 931000



USA.gov is the U.S. government's official web portal to all federal, state and local government web resources and services.